Latest Weather Observations for Mallacoota

IDV60801

Issued at 2:35 pm EST Thursday 28 August 2014 (issued every 30 minutes, with the page automatically refreshed every 10 minutes)

About weather observations | Map of weather stations | Latest weather observations for VIC | Other Formats
Station Details ID: 084084 Name: MALLACOOTA Lat: -37.60 Lon: 149.73 Height: 22.0 m
Data from the previous 72 hours. | See also: Recent months at Mallacoota
Date/Time
EST
Temp
°C
App
Temp
°C
Dew
Point
Rel
Hum
%
Delta-T
°C
Wind Press
QNH
hPa
Press
MSL
hPa
Rain
since 9 am
mm
Dir
 
Spd
km/h
Gust
km/h
Spd
kts
Gust
kts
28/02:30pm 15.9 14.5 10.9 72 2.6 SE 9 13 5 7 1028.3 - 0.0
28/02:00pm 15.7 14.2 10.5 71 2.7 SE 9 13 5 7 1028.3 - 0.0
28/01:30pm 16.1 14.7 10.8 71 2.8 SE 9 15 5 8 1028.4 - 0.0
28/01:00pm 14.8 13.0 9.6 71 2.7 S 9 13 5 7 1028.8 - 0.0
28/12:30pm 15.8 14.1 9.9 68 3.1 SE 9 15 5 8 1029.2 - 0.0
28/12:00pm 16.3 15.1 10.2 67 3.2 SSE 7 11 4 6 1029.4 1029.5 0.0
28/11:30am 15.5 13.7 9.6 68 3.1 SE 9 13 5 7 1029.8 - 0.0
28/11:00am 15.4 13.9 9.1 66 3.2 SSE 7 11 4 6 1030.0 - 0.0
28/10:30am 15.7 14.0 8.2 61 3.8 SSE 7 9 4 5 1030.1 - 0.0
28/10:00am 15.2 13.6 8.9 66 3.2 W 7 11 4 6 1030.2 - 0.0
28/09:30am 13.8 11.8 8.6 71 2.6 WNW 9 13 5 7 1030.2 - 0.0
28/09:00am 12.1 9.5 7.6 74 2.2 NW 11 19 6 10 1030.2 1030.3 0.2
28/08:30am 10.8 8.1 7.3 79 1.7 WNW 11 15 6 8 1030.2 - 0.2
28/08:00am 8.9 5.7 6.9 87 0.9 WNW 13 17 7 9 1030.1 - 0.2
28/07:30am 7.2 3.8 5.7 90 0.7 WNW 13 17 7 9 1030.0 - 0.2
28/07:00am 6.3 2.3 5.1 92 0.5 WNW 15 17 8 9 1029.8 - 0.2
28/06:30am 6.0 2.4 4.8 92 0.5 WNW 13 19 7 10 1029.6 - 0.2
28/06:00am 6.2 2.6 5.0 92 0.5 WNW 13 17 7 9 1029.4 1029.5 0.2
28/05:30am 6.4 2.8 5.2 92 0.5 WNW 13 17 7 9 1029.2 - 0.2
28/05:00am 6.5 3.0 5.3 92 0.5 WNW 13 17 7 9 1029.0 - 0.2
28/04:30am 6.8 3.4 5.7 93 0.5 WNW 13 17 7 9 1028.7 - 0.2
28/04:00am 6.7 3.3 5.7 93 0.4 WNW 13 17 7 9 1028.6 - 0.2
28/03:30am 6.7 3.3 5.7 93 0.4 WNW 13 17 7 9 1028.6 - 0.2
28/03:00am 6.7 3.3 5.7 93 0.4 WNW 13 17 7 9 1028.6 1028.7 0.2
28/02:30am 6.9 3.5 5.8 93 0.5 WNW 13 17 7 9 1028.7 - 0.2
28/02:00am 6.7 3.3 5.7 93 0.4 WNW 13 17 7 9 1028.8 - 0.2
28/01:30am 6.7 3.3 5.7 93 0.4 WNW 13 15 7 8 1029.0 - 0.2
28/01:00am 6.9 3.5 5.8 93 0.5 NW 13 19 7 10 1029.1 - 0.0
28/12:30am 6.9 3.5 5.8 93 0.5 WNW 13 15 7 8 1029.1 - 0.0
28/12:00am 7.0 4.0 5.9 93 0.5 WNW 11 15 6 8 1029.2 1029.3 0.0
 
Date/Time
EST
Temp
°C
App
Temp
°C
Dew
Point
Rel
Hum
%
Delta-T
°C
Wind Press
QNH
hPa
Press
MSL
hPa
Rain
since 9 am
mm
Dir
 
Spd
km/h
Gust
km/h
Spd
kts
Gust
kts
27/11:30pm 7.3 4.3 6.2 93 0.5 WNW 11 15 6 8 1029.4 - 0.0
27/11:00pm 7.7 4.4 6.6 93 0.5 WNW 13 15 7 8 1029.4 - 0.0
27/10:30pm 7.6 4.3 6.5 93 0.5 WNW 13 15 7 8 1029.5 - 0.0
27/10:00pm 7.4 4.4 6.2 92 0.5 WNW 11 15 6 8 1029.6 - 0.0
27/09:30pm 7.7 5.6 6.5 92 0.5 NW 7 13 4 7 1029.5 - 0.0
27/09:00pm 7.8 7.0 6.6 92 0.5 CALM 0 6 0 3 1029.5 1029.6 0.0
27/08:30pm 8.0 6.1 6.6 91 0.6 WNW 6 7 3 4 1029.4 - 0.0
27/08:00pm 8.4 6.6 7.0 91 0.7 WNW 6 7 3 4 1029.4 - 0.0
27/07:30pm 9.0 7.6 7.3 89 0.8 WNW 4 7 2 4 1029.4 - 0.0
27/07:00pm 9.7 8.0 7.6 87 1.0 NW 6 7 3 4 1029.2 - 0.0
27/06:30pm 11.0 9.6 7.3 78 1.8 NW 4 6 2 3 1029.0 - 0.0
27/06:00pm 14.2 11.8 8.8 70 2.7 ENE 11 15 6 8 1028.8 1028.9 0.0
27/05:30pm 14.3 12.0 8.9 70 2.7 ENE 11 17 6 9 1028.5 - 0.0
27/05:00pm 14.9 12.1 8.6 66 3.2 E 13 17 7 9 1028.4 - 0.0
27/04:30pm 15.3 12.2 8.8 65 3.3 E 15 19 8 10 1028.2 - 0.0
27/04:00pm 15.7 12.5 8.4 62 3.7 E 15 20 8 11 1028.3 - 0.0
27/03:30pm 16.2 13.5 8.9 62 3.8 E 13 17 7 9 1028.3 - 0.0
27/03:00pm 16.4 13.6 8.6 60 4.0 E 13 19 7 10 1028.2 1028.3 0.0
27/02:30pm 16.7 14.0 9.1 61 3.9 E 13 19 7 10 1028.3 - 0.0
27/02:00pm 16.4 12.9 7.3 55 4.5 E 15 20 8 11 1028.4 - 0.0
27/01:30pm 16.9 14.0 8.1 56 4.5 E 13 19 7 10 1028.5 - 0.0
27/01:00pm 16.8 13.9 8.2 57 4.4 E 13 19 7 10 1028.5 - 0.0
27/12:30pm 16.4 14.5 9.1 62 3.8 E 9 11 5 6 1028.8 - 0.0
27/12:00pm 16.0 14.1 9.0 63 3.6 E 9 11 5 6 1029.2 1029.3 0.0
27/11:30am 15.9 14.1 9.6 66 3.3 E 9 11 5 6 1029.5 - 0.0
27/11:00am 15.4 13.9 9.1 66 3.2 ENE 7 11 4 6 1029.7 - 0.0
27/10:30am 15.4 14.0 9.5 68 3.1 E 7 9 4 5 1029.8 - 0.0
27/10:00am 15.3 13.8 9.2 67 3.1 ENE 7 11 4 6 1029.8 - 0.0
27/09:30am 15.5 15.1 9.6 68 3.1 NNE 2 9 1 5 1029.7 - 0.0
27/09:00am 13.9 13.1 11.2 84 1.4 NW 6 9 3 5 1029.8 1029.9 0.0
27/08:30am 12.1 11.0 10.8 92 0.7 WNW 7 9 4 5 1029.7 - 0.0
27/08:00am 10.2 8.4 9.3 94 0.4 WNW 9 13 5 7 1029.5 - 0.0
27/07:30am 8.4 6.5 7.6 95 0.4 WNW 7 11 4 6 1029.2 - 0.0
27/07:00am 7.0 4.4 6.1 94 0.4 WNW 9 13 5 7 1028.9 - 0.0
27/06:30am 7.7 5.3 7.0 95 0.3 WNW 9 13 5 7 1028.8 - 0.0
27/06:00am 7.7 5.3 7.0 95 0.3 WNW 9 13 5 7 1028.7 1028.8 0.0
27/05:30am 7.6 4.7 6.7 94 0.4 WNW 11 15 6 8 1028.5 - 0.0
27/05:00am 7.8 5.4 7.1 95 0.3 NW 9 13 5 7 1028.7 - 0.0
27/04:30am 6.9 4.7 6.0 94 0.4 WNW 7 9 4 5 1028.7 - 0.0
27/04:00am 7.3 5.1 6.4 94 0.4 WNW 7 11 4 6 1028.6 - 0.0
27/03:30am 8.0 5.2 7.1 94 0.4 WNW 11 13 6 7 1028.5 - 0.0
27/03:00am 7.9 5.1 7.0 94 0.4 WNW 11 13 6 7 1028.6 1028.7 0.0
27/02:30am 7.8 5.4 6.9 94 0.4 WNW 9 11 5 6 1028.7 - 0.0
27/02:00am 8.1 5.7 7.0 93 0.5 WNW 9 11 5 6 1028.7 - 0.0
27/01:30am 8.8 7.1 7.7 93 0.5 WNW 6 9 3 5 1028.9 - 0.0
27/01:00am 9.0 7.8 7.9 93 0.5 WNW 4 7 2 4 1029.0 - 0.0
27/12:30am 9.4 7.7 8.3 93 0.5 WSW 7 9 4 5 1029.2 - 0.0
27/12:00am 9.1 6.9 8.0 93 0.5 NW 9 11 5 6 1029.1 1029.2 0.0
 
Date/Time
EST
Temp
°C
App
Temp
°C
Dew
Point
Rel
Hum
%
Delta-T
°C
Wind Press
QNH
hPa
Press
MSL
hPa
Rain
since 9 am
mm
Dir
 
Spd
km/h
Gust
km/h
Spd
kts
Gust
kts
26/11:30pm 8.3 6.3 7.2 93 0.5 WNW 7 11 4 6 1029.3 - 0.0
26/11:00pm 8.1 6.1 6.9 92 0.6 NW 7 9 4 5 1029.3 - 0.0
26/10:30pm 8.4 6.6 7.2 92 0.6 NW 6 7 3 4 1029.3 - 0.0
26/10:00pm 9.2 7.4 7.8 91 0.7 NW 7 9 4 5 1029.5 - 0.0
26/09:30pm 9.6 8.0 7.9 89 0.8 NNW 6 7 3 4 1029.6 - 0.0
26/09:00pm 10.6 9.5 8.5 87 1.0 NNW 4 7 2 4 1029.7 1029.8 0.0
26/08:30pm 12.1 10.5 8.9 81 1.6 N 7 9 4 5 1029.6 - 0.0
26/08:00pm 14.5 11.7 10.1 75 2.3 E 15 20 8 11 1029.6 - 0.0
26/07:30pm 14.7 11.1 9.9 73 2.5 E 19 24 10 13 1029.4 - 0.0
26/07:00pm 14.7 10.9 9.7 72 2.6 E 20 28 11 15 1029.3 - 0.0
26/06:30pm 14.9 10.7 9.7 71 2.7 E 22 28 12 15 1029.1 - 0.0
26/06:00pm 15.0 11.9 10.4 74 2.4 E 17 24 9 13 1028.8 1028.9 0.0
26/05:30pm 15.1 13.0 11.1 77 2.1 ENE 13 20 7 11 1028.5 - 0.0
26/05:00pm 15.0 12.4 10.6 75 2.3 ENE 15 24 8 13 1028.1 - 0.0
26/04:30pm 15.5 12.1 10.7 73 2.5 E 19 24 10 13 1028.0 - 0.0
26/04:00pm 15.8 12.5 11.0 73 2.6 E 19 24 10 13 1027.9 - 0.0
26/03:30pm 15.5 12.5 10.7 73 2.5 ENE 17 22 9 12 1027.9 - 0.0
26/03:00pm 15.5 12.6 10.9 74 2.4 E 17 24 9 13 1027.8 1027.9 0.0
26/02:30pm 16.7 13.2 10.8 68 3.2 E 20 28 11 15 1027.9 - 0.0
26/02:00pm 16.8 13.6 11.3 70 3.0 E 19 28 10 15 1027.9 - 0.0
26/01:30pm 17.0 14.2 11.5 70 3.0 E 17 24 9 13 1028.1 - 0.0
26/01:00pm 16.4 13.1 10.9 70 2.9 E 19 26 10 14 1028.3 - 0.0
26/12:30pm 17.0 13.9 11.5 70 3.0 E 19 26 10 14 1028.6 - 0.0
26/12:00pm 17.1 14.1 11.8 71 2.9 ENE 19 24 10 13 1028.8 1028.9 0.0
26/11:30am 16.9 13.6 11.6 71 2.9 E 20 28 11 15 1029.1 - 0.0
26/11:00am 16.7 13.5 11.2 70 3.0 E 19 26 10 14 1029.4 - 0.0
26/10:30am 16.3 14.9 12.1 76 2.3 E 11 15 6 8 1029.5 - 0.0
26/10:00am 15.5 14.9 12.3 81 1.7 SE 7 9 4 5 1029.4 - 0.0
26/09:30am 15.3 16.5 13.8 91 0.8 CALM 0 4 0 2 1029.5 - 0.0
26/09:00am 14.4 15.0 13.1 92 0.7 E 2 6 1 3 1029.5 1029.6 8.6
26/08:30am 14.1 14.8 13.3 95 0.4 W 2 6 1 3 1029.4 - 8.6
26/08:00am 12.7 12.0 11.9 95 0.4 WNW 7 9 4 5 1029.2 - 8.6
26/07:30am 12.2 11.3 11.4 95 0.4 WNW 7 9 4 5 1028.9 - 8.6
26/07:00am 11.6 10.5 10.8 95 0.4 W 7 11 4 6 1028.7 - 8.6
26/06:30am 11.5 10.0 10.7 95 0.4 W 9 11 5 6 1028.6 - 8.6
26/06:00am 11.4 9.9 10.6 95 0.4 WSW 9 13 5 7 1028.3 1028.4 8.2
26/05:30am 11.4 9.5 10.6 95 0.4 W 11 13 6 7 1028.0 - 8.2
26/05:00am 11.5 9.7 10.7 95 0.4 NW 11 15 6 8 1027.9 - 8.2
26/04:30am 11.6 9.8 10.8 95 0.4 NNW 11 13 6 7 1027.8 - 7.0
26/04:00am 11.8 10.0 11.0 95 0.4 N 11 15 6 8 1027.9 - 6.6
26/03:30am 11.8 10.8 11.0 95 0.4 W 7 11 4 6 1027.5 - 2.2
26/03:00am 11.6 10.2 10.8 95 0.4 W 9 13 5 7 1027.4 1027.5 1.4
26/02:30am 11.6 10.1 10.7 94 0.5 W 9 13 5 7 1027.5 - 1.0
26/02:00am 11.4 9.9 10.5 94 0.5 W 9 13 5 7 1027.6 - 1.0
26/01:30am 11.5 10.0 10.6 94 0.5 W 9 11 5 6 1027.6 - 1.0
26/01:00am 11.8 10.8 10.9 94 0.5 W 7 9 4 5 1027.9 - 0.6
26/12:30am 11.6 10.1 10.7 94 0.5 W 9 13 5 7 1028.0 - 0.4
26/12:00am 11.6 10.1 10.7 94 0.5 WNW 9 15 5 8 1027.7 1027.8 0.2
 
Date/Time
EST
Temp
°C
App
Temp
°C
Dew
Point
Rel
Hum
%
Delta-T
°C
Wind Press
QNH
hPa
Press
MSL
hPa
Rain
since 9 am
mm
Dir
 
Spd
km/h
Gust
km/h
Spd
kts
Gust
kts
25/11:30pm 11.0 9.0 10.1 94 0.5 W 11 17 6 9 1027.8 - 0.2
25/11:00pm 10.6 8.8 9.5 93 0.6 W 9 13 5 7 1027.9 - 0.2
25/10:30pm 11.1 9.4 10.0 93 0.6 W 9 13 5 7 1027.9 - 0.2
25/10:00pm 11.2 9.6 10.1 93 0.6 W 9 13 5 7 1027.9 - 0.0
25/09:30pm 10.7 9.3 9.6 93 0.6 W 7 9 4 5 1028.1 - 0.0
25/09:00pm 10.7 8.9 9.6 93 0.5 W 9 11 5 6 1028.1 1028.2 0.0
25/08:30pm 10.9 9.2 9.8 93 0.6 W 9 11 5 6 1028.0 - 0.0
25/08:00pm 11.4 9.8 10.3 93 0.6 W 9 13 5 7 1027.8 - 0.0
25/07:30pm 11.3 10.0 10.0 92 0.7 W 7 9 4 5 1027.7 - 0.0
25/07:00pm 11.7 10.5 10.4 92 0.7 W 7 11 4 6 1027.5 - 0.0
25/06:30pm 11.7 10.5 10.3 91 0.7 W 7 9 4 5 1027.2 - 0.0
25/06:00pm 11.7 10.6 9.9 89 0.9 WSW 6 9 3 5 1026.9 1027.0 0.0
25/05:30pm 12.6 11.1 10.5 87 1.1 SW 9 11 5 6 1026.6 - 0.0
25/05:00pm 13.4 12.0 10.9 85 1.3 SSW 9 13 5 7 1026.6 - 0.0
25/04:30pm 14.4 12.8 11.7 84 1.5 S 11 17 6 9 1026.4 - 0.0
25/04:00pm 14.3 12.7 11.6 84 1.4 SSW 11 17 6 9 1026.2 - 0.0
25/03:30pm 13.8 12.6 11.5 86 1.2 SSW 9 15 5 8 1026.2 - 0.0
25/03:00pm 13.2 11.1 11.3 88 1.0 S 13 20 7 11 1026.2 1026.3 0.0

Other Formats:

Comma delimited format used in spreadsheet applications
http://www.bom.gov.au/fwo/IDV60801/IDV60801.94935.axf

JavaScript Object Notation format (JSON) in row-major order
http://www.bom.gov.au/fwo/IDV60801/IDV60801.94935.json